Time;durP1;ratioP1;P1;durP2;ratioP2;P2;SDS_P1;SDS_P2;PMS_P1;PMS_P2;Temp;Humidity;BMP_temperature;BMP_pressure;BME280_temperature;BME280_humidity;BME280_pressure;Samples;Min_cycle;Max_cycle;Signal;HPM_P1;HPM_P2
2023/10/06 00:00:55;;;;;;;56.77;2.90;;;;;;;;;;5060853;28;20484;-73
2023/10/06 00:03:22;;;;;;;56.47;2.80;;;;;;;;;;5058984;28;20448;-73
2023/10/06 00:05:49;;;;;;;56.17;2.40;;;;;;;;;;5053810;28;20956;-73
2023/10/06 00:08:17;;;;;;;56.47;2.63;;;;;;;;;;5053703;28;20478;-73
2023/10/06 00:10:51;;;;;;;56.17;2.50;;;;;;;;;;5053636;28;20459;-73
2023/10/06 00:13:23;;;;;;;56.60;2.90;;;;;;;;;;5053758;28;20546;-73
2023/10/06 00:15:51;;;;;;;56.40;2.40;;;;;;;;;;5053796;28;20479;-73
2023/10/06 00:18:19;;;;;;;58.17;2.90;;;;;;;;;;5053702;28;20476;-73
2023/10/06 00:20:49;;;;;;;56.40;2.33;;;;;;;;;;5053638;28;20523;-73
2023/10/06 00:23:22;;;;;;;56.30;2.70;;;;;;;;;;5053806;28;20464;-73
2023/10/06 00:25:52;;;;;;;57.67;2.83;;;;;;;;;;5053775;28;20449;-72
2023/10/06 00:28:21;;;;;;;56.67;3.00;;;;;;;;;;5053287;28;20949;-73
2023/10/06 00:30:55;;;;;;;59.60;3.30;;;;;;;;;;5053708;28;21053;-72
2023/10/06 00:33:22;;;;;;;56.77;2.93;;;;;;;;;;5053609;28;20506;-73
2023/10/06 00:35:50;;;;;;;56.57;3.00;;;;;;;;;;5053522;28;20517;-73
2023/10/06 00:38:17;;;;;;;56.63;2.60;;;;;;;;;;5053403;28;20495;-73
2023/10/06 00:40:51;;;;;;;57.20;3.40;;;;;;;;;;5053064;28;20488;-72
2023/10/06 00:43:30;;;;;;;57.83;3.10;;;;;;;;;;5053510;28;20455;-73
2023/10/06 00:46:00;;;;;;;56.40;2.47;;;;;;;;;;5053247;28;20444;-73
2023/10/06 00:48:29;;;;;;;57.00;3.00;;;;;;;;;;5053252;28;20844;-72
2023/10/06 00:50:57;;;;;;;56.50;3.33;;;;;;;;;;5053022;28;20444;-74
2023/10/06 00:53:31;;;;;;;56.57;2.40;;;;;;;;;;5052704;28;20478;-73
2023/10/06 00:55:59;;;;;;;57.30;3.33;;;;;;;;;;5053437;28;20452;-73
2023/10/06 00:58:33;;;;;;;56.43;2.53;;;;;;;;;;5052852;28;20867;-73
2023/10/06 01:01:00;;;;;;;56.70;2.60;;;;;;;;;;5052967;28;20598;-72
2023/10/06 01:03:27;;;;;;;62.73;3.43;;;;;;;;;;5052907;28;20758;-72
2023/10/06 01:05:58;;;;;;;58.97;3.30;;;;;;;;;;5052521;28;20452;-73
2023/10/06 01:08:28;;;;;;;56.17;2.40;;;;;;;;;;5052757;28;20869;-72
2023/10/06 01:11:06;;;;;;;56.43;2.80;;;;;;;;;;5052664;28;20448;-73
2023/10/06 01:13:35;;;;;;;56.43;2.93;;;;;;;;;;5052542;28;20456;-72
2023/10/06 01:16:07;;;;;;;57.00;3.00;;;;;;;;;;5052664;28;20863;-72
2023/10/06 01:18:35;;;;;;;55.77;2.80;;;;;;;;;;5052238;28;20832;-73
2023/10/06 01:21:13;;;;;;;56.17;2.50;;;;;;;;;;5052183;28;20484;-73
2023/10/06 01:23:41;;;;;;;56.50;2.50;;;;;;;;;;5052118;28;20471;-72
2023/10/06 01:26:09;;;;;;;59.47;2.87;;;;;;;;;;5052295;28;20445;-72
2023/10/06 01:28:36;;;;;;;56.97;2.87;;;;;;;;;;5051498;28;20872;-73
2023/10/06 01:31:04;;;;;;;56.47;2.50;;;;;;;;;;5052387;28;20448;-72
2023/10/06 01:33:32;;;;;;;56.73;3.00;;;;;;;;;;5047948;28;20819;-73
2023/10/06 01:35:59;;;;;;;56.40;2.33;;;;;;;;;;5052179;28;20451;-72
2023/10/06 01:38:26;;;;;;;56.43;2.30;;;;;;;;;;5051869;28;20472;-72
2023/10/06 01:40:56;;;;;;;56.37;2.40;;;;;;;;;;5051826;28;21011;-72
2023/10/06 01:43:29;;;;;;;56.40;2.50;;;;;;;;;;5051861;28;20968;-73
2023/10/06 01:45:59;;;;;;;56.17;2.50;;;;;;;;;;5051417;28;20449;-72
2023/10/06 01:48:29;;;;;;;56.67;3.50;;;;;;;;;;5052159;28;20555;-72
2023/10/06 01:50:57;;;;;;;56.77;2.60;;;;;;;;;;5051611;28;20528;-73
2023/10/06 01:53:31;;;;;;;56.17;2.43;;;;;;;;;;5051982;28;20452;-73
2023/10/06 01:56:06;;;;;;;56.60;2.57;;;;;;;;;;5051933;28;20459;-73
2023/10/06 01:58:33;;;;;;;56.50;2.60;;;;;;;;;;5051553;28;20475;-72
2023/10/06 02:01:00;;;;;;;56.13;2.20;;;;;;;;;;5051197;28;20541;-72
2023/10/06 02:03:27;;;;;;;55.83;2.40;;;;;;;;;;5051643;28;20975;-72
2023/10/06 02:05:59;;;;;;;56.57;2.50;;;;;;;;;;5051748;28;20816;-72
2023/10/06 02:08:26;;;;;;;55.77;2.30;;;;;;;;;;5051837;28;20472;-73
2023/10/06 02:10:55;;;;;;;56.47;2.70;;;;;;;;;;5051517;28;20480;-72
2023/10/06 02:13:23;;;;;;;57.50;2.83;;;;;;;;;;5051212;28;20932;-72
2023/10/06 02:15:58;;;;;;;56.70;2.50;;;;;;;;;;5054254;28;20574;-72
2023/10/06 02:18:35;;;;;;;56.17;2.50;;;;;;;;;;5057617;28;20476;-72
2023/10/06 02:21:06;;;;;;;56.63;2.73;;;;;;;;;;5061424;28;20516;-72
2023/10/06 02:23:37;;;;;;;56.40;2.50;;;;;;;;;;5056953;28;20518;-73
2023/10/06 02:26:07;;;;;;;55.87;2.50;;;;;;;;;;5051566;28;20452;-72
2023/10/06 02:28:36;;;;;;;56.57;2.50;;;;;;;;;;5051244;28;20460;-72
2023/10/06 02:31:04;;;;;;;58.57;3.30;;;;;;;;;;5051563;28;20855;-73
2023/10/06 02:33:35;;;;;;;56.13;2.40;;;;;;;;;;5051593;28;20844;-72
2023/10/06 02:36:15;;;;;;;56.50;2.60;;;;;;;;;;5051289;28;20444;-73
2023/10/06 02:38:46;;;;;;;56.27;2.60;;;;;;;;;;5050772;28;20484;-72
2023/10/06 02:41:18;;;;;;;56.37;2.93;;;;;;;;;;5050268;28;20492;-72
2023/10/06 02:43:46;;;;;;;56.47;2.73;;;;;;;;;;5051403;28;20445;-73
2023/10/06 02:46:15;;;;;;;62.50;3.30;;;;;;;;;;5051367;28;20472;-73
2023/10/06 02:48:48;;;;;;;56.70;2.63;;;;;;;;;;5050961;28;20476;-73
2023/10/06 02:51:18;;;;;;;56.60;2.40;;;;;;;;;;5051489;28;20539;-73
2023/10/06 02:53:50;;;;;;;56.50;2.60;;;;;;;;;;5051023;28;20928;-73
2023/10/06 02:56:21;;;;;;;56.33;2.43;;;;;;;;;;5050964;28;20456;-73
2023/10/06 02:58:52;;;;;;;56.73;3.20;;;;;;;;;;5050852;28;20472;-73
2023/10/06 03:01:19;;;;;;;57.33;2.70;;;;;;;;;;5050296;28;20480;-73
2023/10/06 03:03:47;;;;;;;56.60;2.90;;;;;;;;;;5050181;28;20455;-73
2023/10/06 03:06:17;;;;;;;56.90;3.20;;;;;;;;;;5050746;28;20457;-73
2023/10/06 03:08:44;;;;;;;56.70;3.33;;;;;;;;;;5050433;28;20871;-73
2023/10/06 03:11:22;;;;;;;56.27;2.50;;;;;;;;;;5050477;28;20480;-72
2023/10/06 03:13:54;;;;;;;56.00;2.87;;;;;;;;;;5050665;28;20538;-72
2023/10/06 03:16:25;;;;;;;56.33;2.50;;;;;;;;;;5050338;28;20459;-72
2023/10/06 03:18:54;;;;;;;58.17;2.70;;;;;;;;;;5050525;28;20507;-73
2023/10/06 03:21:22;;;;;;;56.00;2.50;;;;;;;;;;5050429;28;20488;-74
2023/10/06 03:23:57;;;;;;;56.40;2.50;;;;;;;;;;5050350;28;20839;-74
2023/10/06 03:26:30;;;;;;;56.03;2.70;;;;;;;;;;5050243;28;20444;-73
2023/10/06 03:29:03;;;;;;;56.47;2.87;;;;;;;;;;5050546;28;20855;-72
2023/10/06 03:31:44;;;;;;;55.80;2.30;;;;;;;;;;5050454;28;20444;-72
2023/10/06 03:34:15;;;;;;;56.50;2.40;;;;;;;;;;5049921;28;20456;-73
2023/10/06 03:36:51;;;;;;;56.23;2.50;;;;;;;;;;5050343;28;20890;-73
2023/10/06 03:39:27;;;;;;;55.97;2.77;;;;;;;;;;5050086;28;20471;-73
2023/10/06 03:42:00;;;;;;;56.17;2.60;;;;;;;;;;5042798;28;20494;-73
2023/10/06 03:44:30;;;;;;;56.57;2.50;;;;;;;;;;5050340;28;20468;-72
2023/10/06 03:47:00;;;;;;;56.40;2.53;;;;;;;;;;5050433;28;20836;-73
2023/10/06 03:49:27;;;;;;;55.70;2.47;;;;;;;;;;5049846;28;20478;-73
2023/10/06 03:51:55;;;;;;;56.03;2.50;;;;;;;;;;5050867;28;20459;-73
2023/10/06 03:54:23;;;;;;;56.40;2.30;;;;;;;;;;5054211;28;20539;-73
2023/10/06 03:56:51;;;;;;;56.47;2.93;;;;;;;;;;5045898;28;20448;-73
2023/10/06 03:59:21;;;;;;;56.37;2.70;;;;;;;;;;5053797;28;20471;-73
2023/10/06 04:01:51;;;;;;;56.37;2.60;;;;;;;;;;5053465;28;20490;-73
2023/10/06 04:04:22;;;;;;;57.20;3.63;;;;;;;;;;5053623;28;20940;-72
2023/10/06 04:06:49;;;;;;;56.80;2.87;;;;;;;;;;5054012;28;20451;-73
2023/10/06 04:09:21;;;;;;;56.17;2.60;;;;;;;;;;5053493;28;21058;-72
2023/10/06 04:11:48;;;;;;;56.53;2.70;;;;;;;;;;5053481;28;20988;-72
2023/10/06 04:14:15;;;;;;;56.67;2.60;;;;;;;;;;5053630;28;20956;-74
2023/10/06 04:16:45;;;;;;;56.47;2.70;;;;;;;;;;5053843;28;20813;-73
2023/10/06 04:19:16;;;;;;;56.80;3.10;;;;;;;;;;5053412;28;20469;-73
2023/10/06 04:21:43;;;;;;;56.50;2.40;;;;;;;;;;5053346;28;20484;-73
2023/10/06 04:24:10;;;;;;;56.30;2.57;;;;;;;;;;5053462;28;20471;-73
2023/10/06 04:26:39;;;;;;;56.80;3.00;;;;;;;;;;5053812;28;20574;-73
2023/10/06 04:29:08;;;;;;;57.00;2.90;;;;;;;;;;5053070;28;20477;-73
2023/10/06 04:31:36;;;;;;;58.60;3.67;;;;;;;;;;5053389;28;20455;-72
2023/10/06 04:34:04;;;;;;;57.80;2.87;;;;;;;;;;5053493;28;20460;-72
2023/10/06 04:36:32;;;;;;;56.50;2.70;;;;;;;;;;5053333;28;20463;-73
2023/10/06 04:38:59;;;;;;;56.90;2.95;;;;;;;;;;5053085;28;20472;-74
2023/10/06 04:41:26;;;;;;;56.67;2.60;;;;;;;;;;5053003;28;20241;-73
2023/10/06 04:43:53;;;;;;;57.67;3.23;;;;;;;;;;5052913;28;20437;-73
2023/10/06 04:46:20;;;;;;;56.30;2.47;;;;;;;;;;5053073;28;20444;-73
2023/10/06 04:48:49;;;;;;;56.17;2.40;;;;;;;;;;5053202;28;20486;-73
2023/10/06 04:51:16;;;;;;;56.07;2.50;;;;;;;;;;5052922;28;20543;-74
2023/10/06 04:53:47;;;;;;;56.77;3.20;;;;;;;;;;5052751;28;20484;-74
2023/10/06 04:56:14;;;;;;;56.60;2.53;;;;;;;;;;5052818;28;20536;-73
2023/10/06 04:58:42;;;;;;;60.90;4.00;;;;;;;;;;5052613;28;20551;-73
2023/10/06 05:01:09;;;;;;;56.60;2.80;;;;;;;;;;5052422;28;20444;-73
2023/10/06 05:03:42;;;;;;;56.30;2.70;;;;;;;;;;5051661;28;20452;-74
2023/10/06 05:06:12;;;;;;;56.23;2.50;;;;;;;;;;5052816;28;20510;-73
2023/10/06 05:08:40;;;;;;;56.80;2.77;;;;;;;;;;5052488;28;20542;-74
2023/10/06 05:11:10;;;;;;;56.57;2.70;;;;;;;;;;5052878;28;20440;-73
2023/10/06 05:13:38;;;;;;;56.47;2.60;;;;;;;;;;5052652;28;20451;-73
2023/10/06 05:16:05;;;;;;;56.40;2.60;;;;;;;;;;5052553;28;20486;-74
2023/10/06 05:18:33;;;;;;;55.97;2.40;;;;;;;;;;5052285;28;20500;-72
2023/10/06 05:21:01;;;;;;;56.40;2.40;;;;;;;;;;5052374;28;20444;-72
2023/10/06 05:23:28;;;;;;;56.35;2.50;;;;;;;;;;5051945;28;20921;-72
2023/10/06 05:26:02;;;;;;;56.33;2.50;;;;;;;;;;5052383;28;20198;-73
2023/10/06 05:28:31;;;;;;;56.23;2.80;;;;;;;;;;5052173;28;20481;-73
2023/10/06 05:30:58;;;;;;;57.67;3.10;;;;;;;;;;5052191;28;20444;-73
2023/10/06 05:33:26;;;;;;;56.43;2.60;;;;;;;;;;5051764;28;20456;-74
2023/10/06 05:35:53;;;;;;;56.83;2.53;;;;;;;;;;5051878;28;20452;-74
2023/10/06 05:38:20;;;;;;;57.77;3.67;;;;;;;;;;5052154;28;20464;-72
2023/10/06 05:40:49;;;;;;;56.03;2.90;;;;;;;;;;5051967;28;20448;-73
2023/10/06 05:43:17;;;;;;;57.00;3.03;;;;;;;;;;5052070;28;20487;-73
2023/10/06 05:45:51;;;;;;;56.37;2.93;;;;;;;;;;5051783;28;20444;-73
2023/10/06 05:48:21;;;;;;;56.47;2.40;;;;;;;;;;5051429;28;20476;-73
2023/10/06 05:50:49;;;;;;;55.97;2.63;;;;;;;;;;5051723;28;20492;-73
2023/10/06 05:53:19;;;;;;;56.10;2.77;;;;;;;;;;5051681;28;20982;-73
2023/10/06 05:55:49;;;;;;;56.77;2.97;;;;;;;;;;5051875;28;20444;-73
2023/10/06 05:58:19;;;;;;;56.58;2.50;;;;;;;;;;5052006;28;20464;-73
2023/10/06 06:00:52;;;;;;;56.30;2.70;;;;;;;;;;5051364;28;20292;-73
2023/10/06 06:03:20;;;;;;;56.47;2.50;;;;;;;;;;5051556;28;20228;-73
2023/10/06 06:05:48;;;;;;;56.47;3.10;;;;;;;;;;5051678;28;20448;-73
2023/10/06 06:08:15;;;;;;;56.43;3.10;;;;;;;;;;5051383;28;20464;-73
2023/10/06 06:10:42;;;;;;;56.30;2.60;;;;;;;;;;5051257;28;20452;-73
2023/10/06 06:13:09;;;;;;;56.60;2.90;;;;;;;;;;5051674;28;20844;-73
2023/10/06 06:15:39;;;;;;;56.13;2.60;;;;;;;;;;5051435;28;20445;-73
2023/10/06 06:18:08;;;;;;;56.17;2.80;;;;;;;;;;5051178;28;20478;-73
2023/10/06 06:20:38;;;;;;;58.03;2.80;;;;;;;;;;5051083;28;20544;-73
2023/10/06 06:23:08;;;;;;;56.60;2.70;;;;;;;;;;5051303;28;20578;-74
2023/10/06 06:25:37;;;;;;;56.28;2.38;;;;;;;;;;5051188;28;20917;-73
2023/10/06 06:28:05;;;;;;;56.70;2.90;;;;;;;;;;5051046;28;20232;-73
2023/10/06 06:30:34;;;;;;;56.63;2.80;;;;;;;;;;5051295;28;20452;-73
2023/10/06 06:33:04;;;;;;;56.17;2.70;;;;;;;;;;5051313;28;20548;-72
2023/10/06 06:35:35;;;;;;;55.97;2.80;;;;;;;;;;5051065;28;20456;-73
2023/10/06 06:38:04;;;;;;;56.70;3.00;;;;;;;;;;5051205;28;20476;-73
2023/10/06 06:40:32;;;;;;;57.40;2.90;;;;;;;;;;5050750;28;20445;-74
2023/10/06 06:42:59;;;;;;;59.47;3.00;;;;;;;;;;5051153;28;20484;-73
2023/10/06 06:45:28;;;;;;;56.40;2.60;;;;;;;;;;5051066;28;20456;-73
2023/10/06 06:47:55;;;;;;;57.23;3.07;;;;;;;;;;5050832;28;20464;-73
2023/10/06 06:50:23;;;;;;;57.10;2.93;;;;;;;;;;5050740;28;20453;-73
2023/10/06 06:52:54;;;;;;;56.60;2.90;;;;;;;;;;5050646;28;20452;-73
2023/10/06 06:55:21;;;;;;;57.57;2.90;;;;;;;;;;5051023;28;20455;-73
2023/10/06 06:57:49;;;;;;;56.27;2.87;;;;;;;;;;5050602;28;21000;-73
2023/10/06 07:00:17;;;;;;;55.67;2.63;;;;;;;;;;5050530;28;20451;-72
2023/10/06 07:02:44;;;;;;;55.97;2.60;;;;;;;;;;5050679;28;20495;-73
2023/10/06 07:05:12;;;;;;;56.90;2.80;;;;;;;;;;5050661;28;20448;-72
2023/10/06 07:07:40;;;;;;;56.13;2.70;;;;;;;;;;5050524;28;20558;-72
2023/10/06 07:10:11;;;;;;;56.67;2.80;;;;;;;;;;5050430;28;20494;-72
2023/10/06 07:12:38;;;;;;;56.90;3.20;;;;;;;;;;5050425;28;20453;-73
2023/10/06 07:15:12;;;;;;;56.27;2.60;;;;;;;;;;5050561;28;20929;-72
2023/10/06 07:17:41;;;;;;;55.90;2.50;;;;;;;;;;5050402;28;21154;-73
2023/10/06 07:20:14;;;;;;;56.60;2.60;;;;;;;;;;5050206;28;20448;-72
2023/10/06 07:22:41;;;;;;;56.17;2.90;;;;;;;;;;5050422;28;20828;-72
2023/10/06 07:25:10;;;;;;;58.27;3.00;;;;;;;;;;5050569;28;20462;-72
2023/10/06 07:27:38;;;;;;;56.83;3.73;;;;;;;;;;5052406;28;20479;-73
2023/10/06 07:30:05;;;;;;;56.40;3.03;;;;;;;;;;5054216;28;20445;-72
2023/10/06 07:32:32;;;;;;;56.20;2.43;;;;;;;;;;5054243;28;20440;-73
2023/10/06 07:35:00;;;;;;;60.00;3.53;;;;;;;;;;5053349;28;20538;-73
2023/10/06 07:37:27;;;;;;;57.27;3.13;;;;;;;;;;5054104;28;20924;-73
2023/10/06 07:39:54;;;;;;;56.50;2.80;;;;;;;;;;5054062;28;20479;-72
2023/10/06 07:42:22;;;;;;;56.90;2.80;;;;;;;;;;5053983;28;20494;-72
2023/10/06 07:44:49;;;;;;;58.83;3.03;;;;;;;;;;5053953;28;20829;-73
2023/10/06 07:47:24;;;;;;;56.60;2.83;;;;;;;;;;5053916;28;20444;-73
2023/10/06 07:49:51;;;;;;;58.03;3.60;;;;;;;;;;5053980;28;20472;-73
2023/10/06 07:52:18;;;;;;;56.23;2.33;;;;;;;;;;5053853;28;20444;-73
2023/10/06 07:54:47;;;;;;;56.70;2.40;;;;;;;;;;5053798;28;20933;-72
2023/10/06 07:57:14;;;;;;;56.33;2.37;;;;;;;;;;5053873;28;20451;-73
2023/10/06 07:59:42;;;;;;;56.57;2.60;;;;;;;;;;5053703;28;20486;-73
2023/10/06 08:02:10;;;;;;;56.53;2.80;;;;;;;;;;5053626;28;20963;-72
2023/10/06 08:04:37;;;;;;;56.50;2.50;;;;;;;;;;5053744;28;20482;-72
2023/10/06 08:07:05;;;;;;;56.87;2.67;;;;;;;;;;5053767;28;20440;-72
2023/10/06 08:09:33;;;;;;;56.53;2.87;;;;;;;;;;5053573;28;20475;-72
2023/10/06 08:12:00;;;;;;;57.30;3.70;;;;;;;;;;5053360;28;20445;-72
2023/10/06 08:14:28;;;;;;;57.00;2.60;;;;;;;;;;5053795;28;20985;-72
2023/10/06 08:16:56;;;;;;;56.50;2.67;;;;;;;;;;5053455;28;20649;-70
2023/10/06 08:19:23;;;;;;;56.60;2.60;;;;;;;;;;5053323;28;20470;-71
2023/10/06 08:21:51;;;;;;;56.67;2.93;;;;;;;;;;5053408;28;20892;-72
2023/10/06 08:24:18;;;;;;;56.70;2.87;;;;;;;;;;5053382;28;20496;-72
2023/10/06 08:26:45;;;;;;;56.90;2.83;;;;;;;;;;5053333;28;20448;-71
2023/10/06 08:29:14;;;;;;;57.17;3.07;;;;;;;;;;5053375;28;20960;-72
2023/10/06 08:31:42;;;;;;;58.00;3.20;;;;;;;;;;5053005;28;20474;-72
2023/10/06 08:34:11;;;;;;;57.30;2.90;;;;;;;;;;5053261;28;20449;-72
2023/10/06 08:36:41;;;;;;;61.80;3.20;;;;;;;;;;5053293;28;20452;-72
2023/10/06 08:39:08;;;;;;;56.80;2.70;;;;;;;;;;5051712;28;20563;-72
2023/10/06 08:41:38;;;;;;;56.47;2.60;;;;;;;;;;5053345;28;20452;-73
2023/10/06 08:44:07;;;;;;;56.60;2.40;;;;;;;;;;5045172;28;20480;-72
2023/10/06 08:46:34;;;;;;;56.50;2.50;;;;;;;;;;5052909;28;21041;-72
2023/10/06 08:49:02;;;;;;;56.27;2.37;;;;;;;;;;5052752;28;20692;-72
2023/10/06 08:51:32;;;;;;;56.40;2.63;;;;;;;;;;5052797;28;20793;-72
2023/10/06 08:54:02;;;;;;;58.60;2.83;;;;;;;;;;5053130;28;20449;-73
2023/10/06 08:56:30;;;;;;;56.50;2.50;;;;;;;;;;5053076;28;20828;-73
2023/10/06 08:58:57;;;;;;;56.30;2.47;;;;;;;;;;5052686;28;20471;-73
2023/10/06 09:01:24;;;;;;;56.27;2.20;;;;;;;;;;5052762;28;20448;-72
2023/10/06 09:03:53;;;;;;;56.60;3.00;;;;;;;;;;5052752;28;20491;-72
2023/10/06 09:06:20;;;;;;;56.50;2.30;;;;;;;;;;5052613;28;20933;-72
2023/10/06 09:08:49;;;;;;;57.20;2.50;;;;;;;;;;5052659;28;20836;-72
2023/10/06 09:11:16;;;;;;;56.60;2.70;;;;;;;;;;5052718;28;20952;-72
2023/10/06 09:13:43;;;;;;;56.20;2.40;;;;;;;;;;5052699;28;20452;-72
2023/10/06 09:16:11;;;;;;;56.37;2.63;;;;;;;;;;5052508;28;20448;-73
2023/10/06 09:18:39;;;;;;;56.47;2.40;;;;;;;;;;5053036;28;20480;-74
2023/10/06 09:21:13;;;;;;;56.37;2.63;;;;;;;;;;5053289;28;20452;-72
2023/10/06 09:23:41;;;;;;;56.80;3.27;;;;;;;;;;5052802;28;20492;-74
2023/10/06 09:26:11;;;;;;;57.00;2.90;;;;;;;;;;5054987;28;20494;-73
2023/10/06 09:28:51;;;;;;;56.30;2.43;;;;;;;;;;5052432;28;20476;-72
2023/10/06 09:31:19;;;;;;;56.43;2.87;;;;;;;;;;5052170;28;20451;-72
2023/10/06 09:33:48;;;;;;;58.37;3.00;;;;;;;;;;5051429;28;20460;-73
2023/10/06 09:36:21;;;;;;;56.30;2.67;;;;;;;;;;5051869;28;20963;-73
2023/10/06 09:38:48;;;;;;;56.60;2.70;;;;;;;;;;5051555;28;20473;-72
2023/10/06 09:41:25;;;;;;;56.67;2.50;;;;;;;;;;5051803;28;20456;-72
2023/10/06 09:43:54;;;;;;;57.90;3.30;;;;;;;;;;5052293;28;20515;-72
2023/10/06 09:46:23;;;;;;;58.10;3.43;;;;;;;;;;5052143;28;20448;-72
2023/10/06 09:48:52;;;;;;;57.73;2.30;;;;;;;;;;5051868;28;20845;-72
2023/10/06 09:51:20;;;;;;;56.90;2.77;;;;;;;;;;5051327;28;20455;-72
2023/10/06 09:53:47;;;;;;;57.77;2.40;;;;;;;;;;5051722;28;20452;-72
2023/10/06 09:56:17;;;;;;;57.47;3.03;;;;;;;;;;5051539;28;20814;-71
2023/10/06 09:58:47;;;;;;;56.77;2.20;;;;;;;;;;5051509;28;20472;-71
2023/10/06 10:01:15;;;;;;;56.50;2.37;;;;;;;;;;5051390;28;20444;-71
2023/10/06 10:03:42;;;;;;;56.47;2.60;;;;;;;;;;5051511;28;20567;-72
2023/10/06 10:06:10;;;;;;;55.90;1.80;;;;;;;;;;5051450;28;20522;-73
2023/10/06 10:08:40;;;;;;;56.23;2.00;;;;;;;;;;5051315;28;20478;-72
2023/10/06 10:11:13;;;;;;;56.37;2.00;;;;;;;;;;5051268;28;20540;-72
2023/10/06 10:13:56;;;;;;;56.50;2.20;;;;;;;;;;5051532;28;20444;-72
2023/10/06 10:16:36;;;;;;;58.83;5.00;;;;;;;;;;5051651;28;20452;-72
2023/10/06 10:19:07;;;;;;;57.10;2.63;;;;;;;;;;5051177;28;20472;-72
2023/10/06 10:21:34;;;;;;;56.30;2.20;;;;;;;;;;5051459;28;20447;-72
2023/10/06 10:24:05;;;;;;;56.20;2.00;;;;;;;;;;5051064;28;20494;-72
2023/10/06 10:26:33;;;;;;;56.20;2.10;;;;;;;;;;5051291;28;20530;-73
2023/10/06 10:29:19;;;;;;;56.00;2.03;;;;;;;;;;5051427;28;20982;-72
2023/10/06 10:31:52;;;;;;;56.17;1.73;;;;;;;;;;5050896;28;20603;-72
2023/10/06 10:34:21;;;;;;;56.20;2.23;;;;;;;;;;5051203;28;20440;-71
2023/10/06 10:36:51;;;;;;;56.57;2.47;;;;;;;;;;5050769;28;20456;-71
2023/10/06 10:39:20;;;;;;;56.43;2.37;;;;;;;;;;5051306;28;20472;-73
2023/10/06 10:41:47;;;;;;;56.00;2.07;;;;;;;;;;5050714;28;20514;-73
2023/10/06 10:44:18;;;;;;;56.37;2.20;;;;;;;;;;5050916;28;20487;-72
2023/10/06 10:46:50;;;;;;;56.30;2.17;;;;;;;;;;5051008;28;20902;-72
2023/10/06 10:49:19;;;;;;;56.60;2.60;;;;;;;;;;5050878;28;20603;-72
2023/10/06 10:51:53;;;;;;;55.70;1.97;;;;;;;;;;5050499;28;20458;-72
2023/10/06 10:54:21;;;;;;;55.50;2.00;;;;;;;;;;5050792;28;20458;-72
2023/10/06 10:56:51;;;;;;;56.47;2.10;;;;;;;;;;5050728;28;20440;-73
2023/10/06 10:59:18;;;;;;;56.97;2.20;;;;;;;;;;5050520;28;20475;-72
2023/10/06 11:01:47;;;;;;;55.70;2.00;;;;;;;;;;5049978;28;20510;-72
2023/10/06 11:04:25;;;;;;;55.40;1.80;;;;;;;;;;5050569;28;20484;-73
2023/10/06 11:06:55;;;;;;;56.27;2.40;;;;;;;;;;5050575;28;20448;-73
2023/10/06 11:09:26;;;;;;;56.10;2.50;;;;;;;;;;5050260;28;20475;-73
2023/10/06 11:11:58;;;;;;;55.50;2.00;;;;;;;;;;5050636;28;20452;-73
2023/10/06 11:14:26;;;;;;;56.50;2.90;;;;;;;;;;5050556;28;20815;-74
2023/10/06 11:16:53;;;;;;;56.70;2.60;;;;;;;;;;5050544;28;20459;-73
2023/10/06 11:19:20;;;;;;;56.07;2.00;;;;;;;;;;5050475;28;20830;-73
2023/10/06 11:21:49;;;;;;;55.57;1.97;;;;;;;;;;5050389;28;20452;-73
2023/10/06 11:24:26;;;;;;;55.60;1.80;;;;;;;;;;5050265;28;20480;-73
2023/10/06 11:26:53;;;;;;;56.13;2.27;;;;;;;;;;5050551;28;20529;-72
2023/10/06 11:29:30;;;;;;;56.03;1.93;;;;;;;;;;5050319;28;20470;-71
2023/10/06 11:31:58;;;;;;;56.27;2.20;;;;;;;;;;5050074;28;20480;-72
2023/10/06 11:34:25;;;;;;;55.77;2.00;;;;;;;;;;5049709;28;20537;-71
2023/10/06 11:36:55;;;;;;;55.40;1.93;;;;;;;;;;5050078;28;20448;-73
2023/10/06 11:39:24;;;;;;;55.37;2.00;;;;;;;;;;5050460;28;20460;-72
2023/10/06 11:41:52;;;;;;;55.50;2.20;;;;;;;;;;5049968;28;20502;-74
2023/10/06 11:44:20;;;;;;;55.33;1.90;;;;;;;;;;5049942;28;20487;-73
2023/10/06 11:46:56;;;;;;;55.60;2.13;;;;;;;;;;5049996;28;20452;-73
2023/10/06 11:49:23;;;;;;;55.40;2.13;;;;;;;;;;5043325;28;20464;-73
2023/10/06 11:51:51;;;;;;;55.67;2.27;;;;;;;;;;5049698;28;20445;-73
2023/10/06 11:54:19;;;;;;;55.23;2.30;;;;;;;;;;5049796;28;20483;-74
2023/10/06 11:56:50;;;;;;;55.47;2.00;;;;;;;;;;5049804;28;20955;-73
2023/10/06 11:59:22;;;;;;;55.77;2.20;;;;;;;;;;5049873;28;20472;-73
2023/10/06 12:01:49;;;;;;;55.10;2.10;;;;;;;;;;5049801;28;20573;-74
2023/10/06 12:04:30;;;;;;;54.97;1.87;;;;;;;;;;5050172;28;20437;-73
2023/10/06 12:06:57;;;;;;;55.37;2.33;;;;;;;;;;5050174;28;20443;-71
2023/10/06 12:09:29;;;;;;;54.80;1.77;;;;;;;;;;5050101;28;20472;-73
2023/10/06 12:11:57;;;;;;;54.90;2.10;;;;;;;;;;5049869;28;20456;-72
2023/10/06 12:14:25;;;;;;;55.10;2.40;;;;;;;;;;5053294;28;20487;-73
2023/10/06 12:16:54;;;;;;;55.37;2.43;;;;;;;;;;5053899;28;20448;-73
2023/10/06 12:19:21;;;;;;;54.90;2.00;;;;;;;;;;5054041;28;20478;-73
2023/10/06 12:21:48;;;;;;;54.70;1.90;;;;;;;;;;5053567;28;20448;-73
2023/10/06 12:24:15;;;;;;;55.13;1.90;;;;;;;;;;5053537;28;20932;-72
2023/10/06 12:26:46;;;;;;;55.70;2.20;;;;;;;;;;5053862;28;20842;-73
2023/10/06 12:29:16;;;;;;;55.07;2.20;;;;;;;;;;5053623;28;20467;-72
2023/10/06 12:31:43;;;;;;;55.77;2.40;;;;;;;;;;5053625;28;20457;-72
2023/10/06 12:34:15;;;;;;;56.07;2.40;;;;;;;;;;5053300;28;21038;-73
2023/10/06 12:36:42;;;;;;;55.20;2.30;;;;;;;;;;5053370;28;20444;-72
2023/10/06 12:39:15;;;;;;;54.90;1.90;;;;;;;;;;5053276;28;20465;-73
2023/10/06 12:41:46;;;;;;;55.10;1.87;;;;;;;;;;5053508;28;20457;-73
2023/10/06 12:44:13;;;;;;;54.90;1.80;;;;;;;;;;5053384;28;20441;-73
2023/10/06 12:46:40;;;;;;;54.80;2.20;;;;;;;;;;5052706;28;20459;-73
2023/10/06 12:49:07;;;;;;;55.00;1.70;;;;;;;;;;5052940;28;20460;-73
2023/10/06 12:51:34;;;;;;;55.30;2.33;;;;;;;;;;5053179;28;20455;-72
2023/10/06 12:54:02;;;;;;;56.27;2.53;;;;;;;;;;5053024;28;20490;-73
2023/10/06 12:56:29;;;;;;;55.67;2.07;;;;;;;;;;5052948;28;20459;-72
2023/10/06 12:58:57;;;;;;;55.10;1.97;;;;;;;;;;5052816;28;20468;-73
2023/10/06 13:01:25;;;;;;;55.43;1.87;;;;;;;;;;5052869;28;20449;-73
2023/10/06 13:03:53;;;;;;;55.83;2.17;;;;;;;;;;5052860;28;20449;-73
2023/10/06 13:06:22;;;;;;;55.03;1.80;;;;;;;;;;5052848;28;20456;-73
2023/10/06 13:08:50;;;;;;;56.27;2.63;;;;;;;;;;5052905;28;20472;-73
2023/10/06 13:11:18;;;;;;;55.00;2.10;;;;;;;;;;5052903;28;20449;-73
2023/10/06 13:13:49;;;;;;;55.20;1.87;;;;;;;;;;5052906;28;20463;-74
2023/10/06 13:16:17;;;;;;;55.27;2.00;;;;;;;;;;5052752;28;20448;-74
2023/10/06 13:18:44;;;;;;;54.90;2.13;;;;;;;;;;5052511;28;20539;-73
2023/10/06 13:21:12;;;;;;;55.17;2.10;;;;;;;;;;5052580;28;20449;-73
2023/10/06 13:23:39;;;;;;;55.27;2.17;;;;;;;;;;5052627;28;20514;-73
2023/10/06 13:26:08;;;;;;;55.30;1.97;;;;;;;;;;5052032;28;20453;-73
2023/10/06 13:28:38;;;;;;;55.27;1.93;;;;;;;;;;5052653;28;20876;-74
2023/10/06 13:31:07;;;;;;;55.17;1.60;;;;;;;;;;5052559;28;20448;-73
2023/10/06 13:33:36;;;;;;;55.20;2.03;;;;;;;;;;5052124;28;20464;-71
2023/10/06 13:36:05;;;;;;;55.50;2.00;;;;;;;;;;5052006;28;20492;-72
2023/10/06 13:38:34;;;;;;;55.30;1.67;;;;;;;;;;5052064;28;20504;-73
2023/10/06 13:41:01;;;;;;;55.67;2.40;;;;;;;;;;5051923;28;20456;-72
2023/10/06 13:43:28;;;;;;;56.27;2.13;;;;;;;;;;5052087;28;20460;-71
2023/10/06 13:45:58;;;;;;;55.33;2.03;;;;;;;;;;5052041;28;20827;-72
2023/10/06 13:48:26;;;;;;;55.80;1.90;;;;;;;;;;5051984;28;20468;-72
2023/10/06 13:50:58;;;;;;;55.03;1.70;;;;;;;;;;5051916;28;20464;-72
2023/10/06 13:53:26;;;;;;;56.40;2.40;;;;;;;;;;5044611;28;20810;-72
2023/10/06 13:55:54;;;;;;;55.80;2.00;;;;;;;;;;5052457;28;20488;-72
2023/10/06 13:58:23;;;;;;;56.47;2.50;;;;;;;;;;5052043;28;20471;-73
2023/10/06 14:00:50;;;;;;;56.10;2.47;;;;;;;;;;5051694;28;20459;-74
2023/10/06 14:03:17;;;;;;;56.60;2.33;;;;;;;;;;5051807;28;20968;-73
2023/10/06 14:05:51;;;;;;;55.50;2.10;;;;;;;;;;5051718;28;20476;-73
2023/10/06 14:08:20;;;;;;;56.07;2.00;;;;;;;;;;5051333;28;20476;-73
2023/10/06 14:10:48;;;;;;;56.40;2.20;;;;;;;;;;5051648;28;20459;-73
2023/10/06 14:13:21;;;;;;;55.57;2.23;;;;;;;;;;5051392;28;20460;-73
2023/10/06 14:15:54;;;;;;;57.00;3.03;;;;;;;;;;5051660;28;20583;-73
2023/10/06 14:18:24;;;;;;;56.60;2.30;;;;;;;;;;5051584;28;20468;-73
2023/10/06 14:20:52;;;;;;;56.17;2.00;;;;;;;;;;5051507;28;20490;-73
2023/10/06 14:23:23;;;;;;;55.87;2.20;;;;;;;;;;5051313;28;20444;-73
2023/10/06 14:25:52;;;;;;;56.10;2.13;;;;;;;;;;5051434;28;20546;-74
2023/10/06 14:28:22;;;;;;;56.30;2.40;;;;;;;;;;5051306;28;20884;-73
2023/10/06 14:30:51;;;;;;;55.97;2.20;;;;;;;;;;5051022;28;20454;-73
2023/10/06 14:33:22;;;;;;;56.70;2.40;;;;;;;;;;5050997;28;20449;-73
2023/10/06 14:36:09;;;;;;;55.97;2.00;;;;;;;;;;5051500;28;20523;-73
2023/10/06 14:46:52;;;;;;;56.17;2.07;;;;;;;;;;5051170;28;20435;-74
2023/10/06 14:49:25;;;;;;;56.93;2.30;;;;;;;;;;5050773;28;20460;-73
2023/10/06 14:51:54;;;;;;;56.67;2.43;;;;;;;;;;5051073;28;20548;-73